Latest Weather Observations for Gingin Airport

IDW60801

Issued at 6:23 pm WST Saturday 22 February 2020 (issued every 10 minutes, with the page automatically refreshed every 10 minutes)

About weather observations | Map of weather stations | Latest weather observations for WA | Other Formats
Station Details ID: 009178 Name: GINGIN AERO Lat: -31.46 Lon: 115.86 Height: 73.0 m
Data from the previous 72 hours. | See also: Recent months at Gingin Airport
Date/Time
WST
Temp
°C
App
Temp
°C
Dew
Point
°C
Rel
Hum
%
Delta-T
°C
Wind Press
QNH
hPa
Press
MSL
hPa
Rain since
9am
mm
Dir  Spd
km/h
Gust
km/h
Spd
kts
Gust
kts
22/06:00pm 25.7 26.2 17.4 60 5.2 ENE 11 15 6 8 1010.2 1009.8 0.0
22/05:30pm 25.7 26.9 17.4 60 5.2 NNE 7 13 4 7 1010.3 1009.9 0.0
22/05:00pm 25.5 25.2 17.4 61 5.1 ENE 15 20 8 11 1010.3 1009.9 0.0
22/04:30pm 26.5 26.8 17.8 58 5.5 NE 13 20 7 11 1010.6 1010.2 0.0
22/04:00pm 26.0 25.4 17.6 60 5.3 NE 17 22 9 12 1010.5 1010.1 0.0
22/03:30pm 25.6 25.5 17.8 62 4.9 NE 15 20 8 11 1010.5 1010.1 0.0
22/03:00pm 25.6 24.7 17.8 62 4.9 ENE 19 24 10 13 1010.7 1010.3 0.0
22/02:30pm 25.4 24.9 17.8 62 4.8 NNE 17 24 9 13 1011.1 1010.7 0.0
22/02:00pm 25.9 25.7 18.6 64 4.7 NNE 17 28 9 15 1011.5 1011.1 0.0
22/01:30pm 25.3 24.6 18.2 64 4.5 ENE 19 26 10 14 1011.1 1010.7 0.0
22/01:00pm 25.0 24.6 18.0 65 4.4 NE 17 22 9 12 1011.9 1011.5 0.0
22/12:30pm 24.5 23.8 18.2 68 4.0 NE 19 26 10 14 1012.0 1011.6 0.0
22/12:00pm 24.1 23.2 18.3 70 3.7 NE 20 26 11 14 1012.1 1011.7 0.0
22/11:30am 23.8 23.1 18.7 73 3.2 NE 20 26 11 14 1012.5 1012.1 0.0
22/11:00am 23.1 22.6 18.6 76 2.8 ENE 19 24 10 13 1012.7 1012.3 0.0
22/10:30am 23.1 23.2 19.1 78 2.5 NE 17 20 9 11 1013.5 1013.2 0.0
22/10:00am 22.5 23.3 19.1 81 2.2 ENE 13 19 7 10 1014.1 1013.8 0.0
22/09:30am 21.8 22.8 19.4 86 1.5 ENE 13 19 7 10 1013.5 1013.2 0.0
22/09:00am 21.3 22.0 19.6 90 1.1 ENE 15 17 8 9 1013.6 1013.3 3.4
22/08:30am 20.6 21.5 19.3 92 0.8 ENE 13 17 7 9 1013.8 1013.5 3.4
22/08:00am 20.1 20.3 18.6 91 0.9 NE 15 20 8 11 1014.3 1014.0 3.2
22/07:30am 20.2 20.5 18.7 91 0.9 NNE 15 19 8 10 1014.3 1014.0 2.8
22/07:00am 20.0 21.7 18.5 91 0.9 NNE 7 9 4 5 1014.4 1014.1 2.6
22/06:30am 19.8 20.2 18.1 90 1.1 NNE 13 19 7 10 1014.4 1014.1 2.0
22/06:00am 19.5 20.1 17.6 89 1.2 NE 11 13 6 7 1014.0 1013.7 1.8
22/05:30am 19.2 19.2 17.2 88 1.2 NE 13 15 7 8 1014.0 1013.7 1.8
22/05:00am 19.3 19.2 16.9 86 1.5 NNE 13 17 7 9 1014.0 1013.7 1.4
22/04:30am 19.9 19.5 16.3 80 2.2 N 13 19 7 10 1014.1 1013.8 0.6
22/04:00am 21.5 21.0 15.8 70 3.4 N 13 15 7 8 1013.8 1013.5 0.2
22/03:30am 21.2 21.7 17.4 79 2.3 NNE 11 13 6 7 1013.4 1013.1 0.2
22/03:00am 21.3 23.7 17.1 77 2.6 CALM 0 0 0 0 1012.9 1012.6 0.2
22/02:30am 21.1 22.1 16.9 77 2.6 NE 7 9 4 5 1012.9 1012.6 0.2
22/02:00am 21.3 20.3 15.6 70 3.4 NNE 15 19 8 10 1013.2 1012.9 0.2
22/01:30am 22.8 22.8 14.1 58 5.1 WNW 7 9 4 5 1013.3 1013.0 0.0
22/01:00am 23.2 22.6 14.5 58 5.2 WSW 11 13 6 7 1013.4 1013.1 0.0
22/12:30am 24.2 24.0 13.1 50 6.4 W 6 7 3 4 1013.2 1012.9 0.0
22/12:00am 25.1 23.5 11.6 42 7.7 NW 11 17 6 9 1013.1 1012.8 0.0
 
Date/Time
WST
Temp
°C
App
Temp
°C
Dew
Point
°C
Rel
Hum
%
Delta-T
°C
Wind Press
QNH
hPa
Press
MSL
hPa
Rain since
9am
mm
Dir  Spd
km/h
Gust
km/h
Spd
kts
Gust
kts
21/11:30pm 26.9 25.0 10.6 36 9.2 ESE 11 13 6 7 1012.9 1012.6 0.0
21/11:00pm 27.8 24.9 8.1 29 10.7 ESE 13 17 7 9 1013.0 1012.7 0.0
21/10:30pm 26.9 24.8 9.7 34 9.6 SE 11 15 6 8 1013.0 1012.7 0.0
21/10:00pm 27.0 24.5 9.8 34 9.6 SSE 13 15 7 8 1013.2 1012.9 0.0
21/09:30pm 27.2 24.9 9.1 32 10.0 SSE 11 13 6 7 1013.3 1013.0 0.0
21/09:00pm 27.8 25.3 9.6 32 10.1 SE 13 15 7 8 1013.4 1013.1 0.0
21/08:30pm 28.0 25.1 9.8 32 10.2 SE 15 20 8 11 1013.1 1012.8 0.0
21/08:00pm 28.2 25.4 9.9 32 10.3 SE 15 20 8 11 1012.8 1012.4 0.0
21/07:30pm 28.8 25.5 9.5 30 10.8 SE 17 22 9 12 1012.5 1012.1 0.0
21/07:00pm 29.2 25.6 9.9 30 10.9 SE 19 24 10 13 1012.3 1011.9 0.0
21/06:30pm 29.8 25.4 10.4 30 11.1 ESE 24 28 13 15 1012.2 1011.8 0.0
21/06:00pm 30.7 26.7 10.6 29 11.5 ESE 22 32 12 17 1012.1 1011.7 0.0
21/05:30pm 30.7 26.9 11.1 30 11.3 SE 22 30 12 16 1012.0 1011.6 0.0
21/05:00pm 30.0 26.2 12.4 34 10.4 SE 24 32 13 17 1012.2 1011.8 0.0
21/04:30pm 29.5 26.3 12.0 34 10.2 ESE 20 28 11 15 1012.5 1012.1 0.0
21/04:00pm 29.4 27.5 11.9 34 10.2 ESE 13 20 7 11 1012.8 1012.4 0.0
21/03:30pm 29.6 25.0 11.2 32 10.6 ESE 26 52 14 28 1013.0 1012.7 0.0
21/03:25pm 30.0 25.2 11.5 32 10.7 E 28 52 15 28 1013.0 1012.7 0.0
21/03:21pm 30.0 25.9 11.5 32 10.7 ENE 24 52 13 28 1012.9 1012.6 0.0
21/03:00pm 30.7 27.1 10.6 29 11.5 ENE 20 28 11 15 1013.2 1012.9 0.0
21/02:30pm 30.9 26.6 10.8 29 11.6 ENE 24 32 13 17 1013.5 1013.2 0.0
21/02:00pm 30.3 25.3 10.8 30 11.2 E 28 37 15 20 1013.9 1013.6 0.0
21/01:30pm 30.3 25.3 10.8 30 11.2 ENE 28 35 15 19 1014.2 1013.9 0.0
21/01:00pm 30.8 25.3 10.7 29 11.6 ENE 30 37 16 20 1014.3 1014.0 0.0
21/12:30pm 30.7 24.8 10.6 29 11.5 ENE 32 46 17 25 1014.5 1014.2 0.0
21/12:00pm 30.8 26.6 9.6 27 12.0 ENE 22 32 12 17 1014.9 1014.6 0.0
21/11:30am 30.0 26.0 9.0 27 11.7 ENE 20 28 11 15 1015.3 1015.0 0.0
21/11:00am 28.9 25.5 9.1 29 11.0 E 17 20 9 11 1015.8 1015.5 0.0
21/10:30am 28.9 24.5 9.1 29 11.0 E 22 30 12 16 1016.1 1015.8 0.0
21/10:00am 28.4 23.6 8.7 29 10.8 E 24 35 13 19 1015.9 1015.6 0.0
21/09:30am 27.8 22.9 8.6 30 10.5 ENE 24 32 13 17 1016.1 1015.8 0.0
21/09:00am 27.1 22.2 8.5 31 10.1 ENE 24 33 13 18 1016.1 1015.8 0.0
21/08:30am 26.8 21.1 8.3 31 10.0 ENE 28 35 15 19 1015.9 1015.6 0.0
21/08:00am 26.4 22.4 8.4 32 9.7 ENE 19 26 10 14 1015.7 1015.4 0.0
21/07:30am 25.2 22.2 7.8 33 9.3 E 13 17 7 9 1015.7 1015.4 0.0
21/07:00am 24.4 21.4 7.5 34 8.9 ESE 13 17 7 9 1015.6 1015.3 0.0
21/06:30am 24.1 21.0 7.3 34 8.8 ESE 13 17 7 9 1015.5 1015.2 0.0
21/06:00am 24.3 21.1 7.0 33 9.0 ESE 13 15 7 8 1015.4 1015.1 0.0
21/05:30am 24.5 21.3 6.7 32 9.3 E 13 17 7 9 1015.2 1014.9 0.0
21/05:00am 24.7 21.1 6.9 32 9.3 ESE 15 17 8 9 1014.7 1014.4 0.0
21/04:30am 24.8 21.6 7.0 32 9.3 E 13 15 7 8 1014.5 1014.2 0.0
21/04:00am 24.6 22.0 7.7 34 9.0 E 11 13 6 7 1014.4 1014.1 0.0
21/03:30am 23.5 20.6 8.0 37 8.2 E 13 15 7 8 1014.3 1014.0 0.0
21/03:00am 21.8 21.4 12.9 57 5.1 E 7 9 4 5 1014.4 1014.1 0.0
21/02:30am 21.3 21.6 14.5 65 4.0 ENE 6 7 3 4 1014.1 1013.8 0.0
21/02:00am 21.1 21.1 14.3 65 4.0 ENE 7 7 4 4 1014.2 1013.9 0.0
21/01:30am 21.3 21.5 14.2 64 4.1 E 6 7 3 4 1014.3 1014.0 0.0
21/01:00am 22.2 23.0 14.8 63 4.4 E 4 6 2 3 1014.3 1014.0 0.0
21/12:30am 22.8 24.3 15.6 64 4.3 NW 2 7 1 4 1014.4 1014.1 0.0
21/12:00am 23.1 23.7 15.4 62 4.6 SE 6 9 3 5 1014.4 1014.1 0.0
 
Date/Time
WST
Temp
°C
App
Temp
°C
Dew
Point
°C
Rel
Hum
%
Delta-T
°C
Wind Press
QNH
hPa
Press
MSL
hPa
Rain since
9am
mm
Dir  Spd
km/h
Gust
km/h
Spd
kts
Gust
kts
20/11:30pm 22.3 23.3 14.2 60 4.8 WNW 2 6 1 3 1014.1 1013.8 0.0
20/11:00pm 23.7 24.1 15.2 59 5.1 NW 7 7 4 4 1014.0 1013.7 0.0
20/10:30pm 24.5 24.5 15.1 55 5.7 NW 9 13 5 7 1014.2 1013.9 0.0
20/10:00pm 25.4 25.0 14.2 50 6.7 NW 9 13 5 7 1014.2 1013.9 0.0
20/09:30pm 28.4 26.3 12.3 37 9.4 N 15 24 8 13 1013.8 1013.5 0.0
20/09:00pm 28.9 25.7 5.1 22 12.4 ESE 11 13 6 7 1013.3 1013.0 0.0
20/08:30pm 29.7 26.5 5.1 21 12.8 ESE 11 13 6 7 1013.0 1012.7 0.0
20/08:00pm 31.0 27.5 5.4 20 13.5 E 13 17 7 9 1012.8 1012.4 0.0
20/07:30pm 32.0 27.4 5.5 19 14.1 ESE 19 24 10 13 1012.5 1012.1 0.0
20/07:00pm 33.1 27.0 4.8 17 15.0 E 26 33 14 18 1012.1 1011.7 0.0
20/06:30pm 33.9 27.0 4.6 16 15.5 E 30 37 16 20 1011.7 1011.3 0.0
20/06:00pm 34.2 28.3 3.9 15 15.9 E 24 28 13 15 1011.3 1010.9 0.0
20/05:30pm 34.9 29.1 4.4 15 16.2 E 24 35 13 19 1011.1 1010.7 0.0
20/05:00pm 34.9 28.2 5.4 16 15.9 E 30 39 16 21 1011.0 1010.6 0.0
20/04:30pm 36.4 31.8 6.6 16 16.5 ENE 20 30 11 16 1010.9 1010.5 0.0
20/04:00pm 36.5 30.4 6.6 16 16.6 E 28 35 15 19 1011.0 1010.6 0.0
20/03:30pm 36.8 31.4 7.8 17 16.4 ENE 26 37 14 20 1011.1 1010.7 0.0
20/03:00pm 35.7 31.6 8.5 19 15.5 E 20 30 11 16 1011.5 1011.1 0.0
20/02:30pm 35.4 31.0 9.0 20 15.1 ENE 22 35 12 19 1011.7 1011.3 0.0
20/02:00pm 35.2 31.5 9.6 21 14.8 E 19 35 10 19 1012.0 1011.6 0.0
20/01:30pm 35.8 31.9 9.3 20 15.3 ENE 20 32 11 17 1012.2 1011.8 0.0
20/01:00pm 34.7 30.5 9.9 22 14.3 ENE 22 32 12 17 1012.5 1012.1 0.0
20/12:30pm 34.0 30.2 11.2 25 13.4 ENE 22 30 12 16 1013.1 1012.8 0.0
20/12:00pm 33.7 30.6 11.5 26 13.1 ENE 19 32 10 17 1013.5 1013.2 0.0
20/11:30am 32.8 29.6 11.9 28 12.4 NE 20 32 11 17 1013.9 1013.6 0.0
20/11:00am 31.9 27.8 12.7 31 11.4 ENE 26 37 14 20 1014.3 1014.0 0.0
20/10:30am 30.0 24.5 12.4 34 10.4 ENE 33 41 18 22 1014.4 1014.1 0.0
20/10:00am 29.4 23.8 11.5 33 10.4 E 32 39 17 21 1014.5 1014.2 0.0
20/09:30am 28.9 24.4 11.5 34 10.1 E 26 32 14 17 1014.4 1014.1 0.0
20/09:00am 29.9 25.6 11.9 33 10.5 E 26 33 14 18 1014.5 1014.2 0.0
20/08:30am 29.6 26.3 11.6 33 10.5 ENE 20 28 11 15 1014.3 1014.0 0.0
20/08:00am 28.2 25.0 11.3 35 9.7 ENE 19 26 10 14 1014.1 1013.8 0.0
20/07:30am 26.7 24.5 10.8 37 9.0 ESE 13 15 7 8 1014.1 1013.8 0.0
20/07:00am 26.6 24.1 11.1 38 8.8 ESE 15 20 8 11 1013.8 1013.5 0.0
20/06:30am 25.0 22.9 11.2 42 7.8 ESE 13 15 7 8 1013.5 1013.2 0.0
20/06:00am 24.7 22.5 10.9 42 7.7 E 13 19 7 10 1013.0 1012.7 0.0
20/05:30am 25.2 22.7 11.0 41 8.0 ENE 15 19 8 10 1012.5 1012.1 0.0
20/05:00am 25.8 22.8 10.8 39 8.4 E 17 20 9 11 1012.3 1011.9 0.0
20/04:30am 26.4 22.8 10.5 37 8.9 E 20 26 11 14 1011.9 1011.5 0.0
20/04:00am 26.7 23.3 10.4 36 9.2 E 19 28 10 15 1011.7 1011.3 0.0
20/03:30am 27.1 23.6 10.3 35 9.4 E 19 26 10 14 1011.5 1011.1 0.0
20/03:00am 27.3 23.7 10.5 35 9.5 E 20 24 11 13 1011.8 1011.4 0.0
20/02:30am 27.6 23.7 10.8 35 9.5 E 22 28 12 15 1011.9 1011.5 0.0
20/02:00am 27.6 24.1 10.8 35 9.5 ENE 20 28 11 15 1011.7 1011.3 0.0
20/01:30am 27.9 24.5 10.6 34 9.8 ENE 19 24 10 13 1011.8 1011.4 0.0
20/01:00am 28.1 25.5 10.8 34 9.9 E 15 20 8 11 1011.7 1011.3 0.0
20/12:30am 28.6 25.1 10.8 33 10.2 E 20 30 11 16 1011.7 1011.3 0.0
20/12:00am 28.4 25.0 10.6 33 10.1 ESE 19 24 10 13 1011.7 1011.3 0.0
 
Date/Time
WST
Temp
°C
App
Temp
°C
Dew
Point
°C
Rel
Hum
%
Delta-T
°C
Wind Press
QNH
hPa
Press
MSL
hPa
Rain since
9am
mm
Dir  Spd
km/h
Gust
km/h
Spd
kts
Gust
kts
19/11:30pm 28.5 25.8 11.6 35 9.8 ESE 17 24 9 13 1011.8 1011.4 0.0
19/11:00pm 29.0 26.1 12.4 36 9.7 E 19 24 10 13 1011.8 1011.4 0.0
19/10:30pm 29.0 27.4 12.8 36 9.6 E 13 17 7 9 1011.8 1011.4 0.0
19/10:00pm 29.6 28.0 12.9 35 9.9 E 13 15 7 8 1011.8 1011.4 0.0
19/09:30pm 30.4 27.5 12.8 34 10.4 E 20 26 11 14 1011.8 1011.4 0.0
19/09:00pm 31.1 28.3 12.5 32 11.0 ENE 19 32 10 17 1011.4 1011.0 0.0
19/08:47pm 31.4 27.9 12.2 30 11.3 ENE 22 32 12 17 1011.2 1010.8 0.0
19/08:30pm 30.5 29.8 11.9 31 10.9 NE 7 11 4 6 1011.1 1010.7 0.0
19/08:00pm 31.8 30.4 12.1 30 11.6 E 11 15 6 8 1010.7 1010.3 0.0
19/07:30pm 32.4 30.2 12.1 29 12.0 E 15 20 8 11 1010.3 1009.9 0.0
19/07:00pm 33.2 30.7 12.2 28 12.5 ESE 17 22 9 12 1009.8 1009.4 0.0
19/06:30pm 33.9 31.2 11.7 26 13.1 ESE 17 24 9 13 1009.6 1009.2 0.0

Other formats

Comma delimited format used in spreadsheet applications
http://www.bom.gov.au/fwo/IDW60801/IDW60801.95612.axf

JavaScript Object Notation format (JSON) in row-major order
http://www.bom.gov.au/fwo/IDW60801/IDW60801.95612.json

Data quality

Most of these data are generated automatically and are frequently updated. Quality checks on data are not normally performed. It is possible for incorrect values to appear. Refer to information at About Latest Weather Observations and please check the disclaimer before using these data.